Terminal Aerodrome Forecast
Issued by NWS

Home | Current Version | Previous Version | Text Only | Print | Product List | Glossary On
Versions: 1 2 3 4 5 6 7 8 9 10 11 12 13 14 15 16 17 18 19 20 21 22 23 24 25 26 27 28 29 30
425
FTUS43 KOAX 281521 CCB
TAFSNY
TAF COR
KSNY 281521Z 2815/2912 09008KT 2SM -SN BR SCT004 OVC012
      TEMPO 2815/2817 1/2SM SN FG VV003
     FM290000 02015G23KT 3SM -SN SCT003 OVC007
     FM290400 03012KT P6SM VCSH OVC003=

USA.gov is the U.S. government's official web portal to all federal, state and local government web resources and services.